Pagina principale
METAR-TAF:

METAR-TAF

Aeroporti :

Angers, Francia

latitudine: 47-33-37N, longitudine: 000-18-44W, altezza: 59 m

Osservazione

Il bollettino è stato emesso 25 minuti fa, alle 08:00 UTC
Vento 4 kt da ovest/sud-ovest
Temperature 6°C
Umidità 100%
Pressione 1013 hPa
Visibilità 10 km o più
Poco nuvoloso ad un'altezza di 1000 ft
Nubi sparse ad un'altezza di 19000 ft
Cielo coperto ad un'altezza di 21000 ft

METAR: LFJR 110800Z AUTO 24004KT 9999 FEW010 SCT190 OVC210 06/06 Q1013

Ora: 09:25 (08:25 UTC)


TAF: mancante

Osservazioni e previsioni meteorologiche di più di 4000 aeroporti (messaggi METAR e TAF).

Le stazioni disponibili sono rappresentate dai dischi gialli e rossi sulla carta.

Puntare il mouse per vedere il nome della stazione.

Clicca sopra per visualizzare le osservazioni e previsioni meteorologiche.

Per cambiare la mappa : fare clic sui pulsanti verdi con una croce nera per ingrandire, il pulsante verde con un trattino per diminuire, o sulla freccia verde per le mappe adiacenti.


METAR-TAF: